Time;durP1;ratioP1;P1;durP2;ratioP2;P2;SDS_P1;SDS_P2;PMS_P1;PMS_P2;Temp;Humidity;BMP_temperature;BMP_pressure;BME280_temperature;BME280_humidity;BME280_pressure;Samples;Min_cycle;Max_cycle;Signal;HPM_P1;HPM_P2
2023/01/29 00:02:06;;;;;;;3.75;2.85;;;6.10;99.90;;;;;;4947765;29;20055;-87
2023/01/29 00:04:34;;;;;;;3.30;2.42;;;6.10;99.90;;;;;;4949641;28;20048;-87
2023/01/29 00:07:00;;;;;;;4.13;3.00;;;6.10;99.90;;;;;;4981283;28;20055;-88
2023/01/29 00:09:27;;;;;;;4.90;3.40;;;6.10;99.90;;;;;;4980314;28;20483;-87
2023/01/29 00:11:54;;;;;;;4.18;2.92;;;6.00;99.90;;;;;;4962257;28;20122;-85
2023/01/29 00:14:21;;;;;;;3.50;2.60;;;6.10;99.90;;;;;;4960600;28;20090;-85
2023/01/29 00:16:49;;;;;;;3.38;2.88;;;6.00;99.90;;;;;;4947842;28;20151;-86
2023/01/29 00:19:16;;;;;;;4.25;2.63;;;6.00;99.90;;;;;;4946580;28;20109;-85
2023/01/29 00:21:43;;;;;;;2.65;2.20;;;6.00;99.90;;;;;;4946331;29;20061;-86
2023/01/29 00:24:11;;;;;;;4.40;3.63;;;6.00;99.90;;;;;;4977551;28;20062;-86
2023/01/29 00:26:39;;;;;;;6.60;4.47;;;5.90;99.90;;;;;;4961697;28;20082;-87
2023/01/29 00:29:06;;;;;;;5.40;3.90;;;5.90;99.90;;;;;;4979138;28;20061;-86
2023/01/29 00:31:33;;;;;;;4.90;3.90;;;5.80;99.90;;;;;;4938227;29;20059;-86
2023/01/29 00:34:00;;;;;;;5.82;4.40;;;5.80;99.90;;;;;;4978864;28;20071;-85
2023/01/29 00:36:27;;;;;;;5.72;4.70;;;5.80;99.90;;;;;;4977496;28;20637;-85
2023/01/29 00:38:57;;;;;;;4.72;3.70;;;5.80;99.90;;;;;;4962547;28;20165;-85
2023/01/29 00:47:02;;;;;;;6.80;4.47;;;5.80;99.90;;;;;;4932456;29;20054;-84
2023/01/29 00:49:29;;;;;;;6.38;5.00;;;5.70;99.90;;;;;;4931435;28;20884;-86
2023/01/29 00:54:41;;;;;;;7.97;6.10;;;5.70;99.90;;;;;;4947739;28;20065;-87
2023/01/29 00:57:08;;;;;;;5.95;5.35;;;5.70;99.90;;;;;;4931480;28;20051;-86
2023/01/29 00:59:36;;;;;;;6.57;5.57;;;5.70;99.90;;;;;;4947318;29;20055;-87
2023/01/29 01:04:48;;;;;;;7.35;5.65;;;5.60;99.90;;;;;;4961893;28;20075;-87
2023/01/29 01:07:14;;;;;;;7.57;6.47;;;5.60;99.90;;;;;;4948473;29;20784;-86
2023/01/29 01:12:27;;;;;;;7.50;5.38;;;5.60;99.90;;;;;;4933648;29;20048;-87
2023/01/29 01:14:54;;;;;;;8.23;6.80;;;5.60;99.90;;;;;;4963391;28;20051;-86
2023/01/29 01:17:20;;;;;;;8.65;5.05;;;5.60;99.90;;;;;;4979051;28;20066;-85
2023/01/29 01:19:47;;;;;;;8.70;6.20;;;5.60;99.90;;;;;;4963355;28;20135;-86
2023/01/29 01:22:14;;;;;;;7.35;6.32;;;5.50;99.90;;;;;;4963943;28;20169;-86
2023/01/29 01:24:41;;;;;;;8.55;6.53;;;5.50;99.90;;;;;;4963613;28;20079;-86
2023/01/29 01:27:08;;;;;;;7.28;5.32;;;5.50;99.90;;;;;;4963036;28;20051;-87
2023/01/29 01:29:35;;;;;;;7.00;5.18;;;5.60;99.90;;;;;;4963299;28;20058;-87
2023/01/29 01:32:03;;;;;;;6.95;4.70;;;5.60;99.90;;;;;;4948172;28;20188;-87
2023/01/29 01:34:30;;;;;;;6.03;4.80;;;5.60;99.90;;;;;;4948780;28;20150;-87
2023/01/29 01:36:57;;;;;;;7.60;4.47;;;5.60;99.90;;;;;;4963965;28;20051;-87
2023/01/29 01:39:24;;;;;;;5.97;4.38;;;5.60;99.90;;;;;;4980070;28;20086;-87
2023/01/29 01:41:54;;;;;;;5.80;4.28;;;5.60;99.90;;;;;;4962877;28;20134;-86
2023/01/29 01:44:52;;;;;;;4.53;3.58;;;5.60;99.90;;;;;;4947821;29;20074;-87
2023/01/29 01:47:36;;;;;;;5.65;3.80;;;5.70;99.90;;;;;;4948572;29;20085;-87
2023/01/29 01:50:30;;;;;;;5.20;3.70;;;5.70;99.90;;;;;;4947756;28;20118;-87
2023/01/29 01:53:01;;;;;;;4.85;3.90;;;5.70;99.90;;;;;;4941327;29;20051;-86
2023/01/29 01:55:29;;;;;;;6.10;3.97;;;5.80;99.90;;;;;;4970464;28;20082;-87
2023/01/29 01:58:00;;;;;;;4.50;3.15;;;5.70;99.90;;;;;;4962980;28;20137;-86
2023/01/29 02:00:27;;;;;;;5.18;3.65;;;5.70;99.90;;;;;;4981050;28;20078;-87
2023/01/29 02:11:32;;;;;;;6.60;4.93;;;5.70;99.90;;;;;;4970712;28;20098;-87
2023/01/29 02:13:58;;;;;;;6.10;4.55;;;5.70;99.90;;;;;;4979002;28;20059;-86
2023/01/29 02:16:25;;;;;;;7.03;5.38;;;5.60;99.90;;;;;;4949091;29;20126;-87
2023/01/29 02:18:52;;;;;;;6.38;4.97;;;5.60;99.90;;;;;;4965153;28;20094;-86
2023/01/29 02:21:41;;;;;;;5.45;4.40;;;5.60;99.90;;;;;;4965366;28;20078;-87
2023/01/29 02:24:19;;;;;;;4.93;3.97;;;5.60;99.90;;;;;;4976573;28;20053;-87
2023/01/29 02:26:52;;;;;;;5.40;4.22;;;5.60;99.90;;;;;;4980396;28;20065;-87
2023/01/29 02:29:43;;;;;;;5.03;4.00;;;5.60;99.90;;;;;;4965447;28;20129;-86
2023/01/29 02:32:19;;;;;;;5.93;4.45;;;5.70;99.90;;;;;;4954338;28;20051;-86
2023/01/29 02:37:55;;;;;;;6.88;4.32;;;5.60;99.90;;;;;;4974247;28;20118;-87
2023/01/29 02:40:22;;;;;;;7.30;5.38;;;5.60;99.90;;;;;;4952458;28;20471;-87
2023/01/29 02:43:29;;;;;;;6.70;4.97;;;5.60;99.90;;;;;;4951814;28;20078;-87
2023/01/29 02:46:00;;;;;;;6.63;5.20;;;5.60;99.90;;;;;;4935626;29;20051;-87
2023/01/29 02:48:33;;;;;;;7.28;6.18;;;5.60;99.90;;;;;;4967061;28;20193;-86
2023/01/29 02:51:13;;;;;;;;;;;5.50;99.90;;;;;;4948609;29;20043;-86
2023/01/29 02:54:13;;;;;;;8.93;5.57;;;5.50;99.90;;;;;;4950780;28;19923;-86
2023/01/29 02:56:52;;;;;;;7.35;5.60;;;5.60;99.90;;;;;;4966435;28;20097;-87
2023/01/29 02:59:37;;;;;;;6.57;4.95;;;5.60;99.90;;;;;;4913871;28;1118997;-87
2023/01/29 03:02:07;;;;;;;8.38;5.82;;;5.60;99.90;;;;;;4938095;29;20138;-87
2023/01/29 03:04:41;;;;;;;6.32;5.20;;;5.60;99.90;;;;;;4968288;28;20126;-87
2023/01/29 03:07:21;;;;;;;6.57;4.97;;;5.60;99.90;;;;;;4937450;29;20047;-87
2023/01/29 03:09:48;;;;;;;7.25;5.47;;;5.60;99.90;;;;;;4937836;29;20089;-87
2023/01/29 03:12:32;;;;;;;7.93;6.05;;;5.50;99.90;;;;;;4967176;28;20098;-87
2023/01/29 03:15:15;;;;;;;6.65;4.97;;;5.60;99.90;;;;;;4952087;29;20122;-86
2023/01/29 03:18:01;;;;;;;6.47;4.93;;;5.50;99.90;;;;;;4923342;29;20074;-86
2023/01/29 03:20:31;;;;;;;7.97;6.30;;;5.60;99.90;;;;;;4984551;28;20130;-87
2023/01/29 03:23:03;;;;;;;8.52;5.95;;;5.50;99.90;;;;;;4959366;28;20058;-86
2023/01/29 03:33:51;;;;;;;9.00;6.93;;;5.50;99.90;;;;;;4957666;28;20491;-80
2023/01/29 03:36:36;;;;;;;8.38;6.13;;;5.50;99.90;;;;;;4976008;28;20050;-88
2023/01/29 03:39:05;;;;;;;7.22;5.57;;;5.50;99.90;;;;;;4965463;28;20067;-87
2023/01/29 03:41:34;;;;;;;9.63;7.03;;;5.50;99.90;;;;;;4970141;28;20210;-87
2023/01/29 03:44:39;;;;;;;8.00;6.20;;;5.50;99.90;;;;;;4988305;28;20059;-87
2023/01/29 03:47:14;;;;;;;8.90;6.78;;;5.50;99.90;;;;;;4950767;29;20078;-87
2023/01/29 03:49:52;;;;;;;8.52;6.53;;;5.50;99.90;;;;;;4963041;28;20078;-87
2023/01/29 03:52:25;;;;;;;8.48;6.38;;;5.40;99.90;;;;;;4951264;29;20110;-87
2023/01/29 03:55:17;;;;;;;9.05;7.18;;;5.50;99.90;;;;;;4936558;29;20133;-87
2023/01/29 03:58:14;;;;;;;8.30;6.70;;;5.50;99.90;;;;;;4917112;29;20429;-87
2023/01/29 04:00:44;;;;;;;7.30;6.03;;;5.50;99.90;;;;;;4969876;28;20143;-85
2023/01/29 04:03:32;;;;;;;8.55;6.78;;;5.50;99.90;;;;;;4952246;29;20094;-86
2023/01/29 04:06:17;;;;;;;8.50;6.38;;;5.50;99.90;;;;;;4950455;29;20051;-86
2023/01/29 04:08:53;;;;;;;8.45;6.35;;;5.50;99.90;;;;;;4964918;28;20051;-86
2023/01/29 04:11:22;;;;;;;6.88;5.85;;;5.50;99.90;;;;;;4950188;29;20051;-86
2023/01/29 04:13:50;;;;;;;8.43;5.88;;;5.50;99.90;;;;;;4950625;28;20051;-87
2023/01/29 04:16:23;;;;;;;8.23;6.20;;;5.50;99.90;;;;;;4982930;28;20409;-87
2023/01/29 04:18:50;;;;;;;6.47;5.13;;;5.50;99.90;;;;;;4950587;29;20474;-87
2023/01/29 04:21:17;;;;;;;8.88;6.20;;;5.50;99.90;;;;;;4951610;28;20059;-86
2023/01/29 04:23:45;;;;;;;8.68;6.63;;;5.50;99.90;;;;;;4966795;28;20051;-87
2023/01/29 04:26:26;;;;;;;8.52;6.03;;;5.50;99.90;;;;;;4951850;28;20059;-87
2023/01/29 04:29:08;;;;;;;8.32;6.70;;;5.50;99.90;;;;;;4951258;28;20102;-87
2023/01/29 04:31:42;;;;;;;10.68;8.35;;;5.50;99.90;;;;;;4950674;29;20582;-87
2023/01/29 04:34:25;;;;;;;8.32;6.68;;;5.40;99.90;;;;;;4950864;29;20051;-86
2023/01/29 04:36:59;;;;;;;8.05;6.78;;;5.40;99.90;;;;;;4951746;29;20047;-87
2023/01/29 04:39:48;;;;;;;9.02;6.50;;;5.50;99.90;;;;;;4951571;29;20057;-87
2023/01/29 04:42:19;;;;;;;10.18;6.40;;;5.50;99.90;;;;;;4980603;28;20082;-87
2023/01/29 04:45:12;;;;;;;8.88;6.30;;;5.50;99.90;;;;;;4949177;29;20106;-87
2023/01/29 04:48:10;;;;;;;8.32;6.30;;;5.50;99.90;;;;;;4948774;29;20118;-87
2023/01/29 04:50:57;;;;;;;7.97;6.22;;;5.50;99.90;;;;;;4935575;29;20138;-87
2023/01/29 04:53:37;;;;;;;8.00;6.47;;;5.50;99.90;;;;;;4951532;28;20047;-87
2023/01/29 04:56:06;;;;;;;6.43;5.30;;;5.50;99.90;;;;;;4950268;29;20065;-87
2023/01/29 04:58:40;;;;;;;8.13;6.00;;;5.50;99.90;;;;;;4949941;28;20051;-86
2023/01/29 05:01:09;;;;;;;9.32;6.72;;;5.50;99.90;;;;;;4950281;28;20100;-87
2023/01/29 05:03:36;;;;;;;9.10;6.93;;;5.50;99.90;;;;;;4950076;29;20491;-86
2023/01/29 05:06:03;;;;;;;9.32;7.30;;;5.50;99.90;;;;;;4966549;28;20051;-87
2023/01/29 05:08:30;;;;;;;10.73;7.13;;;5.40;99.90;;;;;;4965739;28;20495;-87
2023/01/29 05:10:58;;;;;;;10.18;7.93;;;5.50;99.90;;;;;;4982050;28;20055;-87
2023/01/29 05:13:25;;;;;;;9.25;6.82;;;5.40;99.90;;;;;;4965764;28;20403;-87
2023/01/29 05:16:06;;;;;;;8.70;6.97;;;5.50;99.90;;;;;;4947067;29;20468;-87
2023/01/29 05:18:33;;;;;;;7.70;6.15;;;5.40;99.90;;;;;;4962933;28;20059;-86
2023/01/29 05:21:03;;;;;;;8.40;6.15;;;5.50;99.90;;;;;;4950631;29;20074;-87
2023/01/29 05:23:30;;;;;;;6.28;4.93;;;5.50;99.90;;;;;;4934440;29;20086;-87
2023/01/29 05:25:57;;;;;;;6.00;4.70;;;5.60;99.90;;;;;;4950055;29;20142;-87
2023/01/29 05:28:23;;;;;;;5.38;4.45;;;5.60;99.90;;;;;;4964636;28;20059;-87
2023/01/29 05:30:53;;;;;;;5.80;4.30;;;5.60;99.90;;;;;;4982415;28;20085;-87
2023/01/29 05:33:30;;;;;;;4.97;3.72;;;5.60;99.90;;;;;;4965155;28;20094;-87
2023/01/29 05:36:00;;;;;;;4.10;3.60;;;5.60;99.90;;;;;;4950088;29;20055;-87
2023/01/29 05:38:27;;;;;;;4.75;3.05;;;5.70;99.90;;;;;;4949183;28;20218;-86
2023/01/29 05:40:57;;;;;;;4.45;3.08;;;5.70;99.90;;;;;;4950236;28;20057;-87
2023/01/29 05:43:24;;;;;;;4.72;3.92;;;5.70;99.90;;;;;;4934079;29;20055;-86
2023/01/29 05:45:52;;;;;;;5.20;3.60;;;5.60;99.90;;;;;;4934188;29;20077;-86
2023/01/29 05:48:19;;;;;;;4.80;3.53;;;5.70;99.90;;;;;;4965746;28;20137;-87
2023/01/29 05:50:46;;;;;;;4.47;3.22;;;5.70;99.90;;;;;;4981781;28;20115;-87
2023/01/29 05:53:14;;;;;;;5.43;4.28;;;5.60;99.90;;;;;;4980957;28;20126;-85
2023/01/29 05:55:47;;;;;;;5.82;4.00;;;5.60;99.90;;;;;;4950721;29;20055;-87
2023/01/29 05:58:14;;;;;;;7.38;4.63;;;5.60;99.90;;;;;;4982026;28;20049;-87
2023/01/29 06:00:41;;;;;;;6.28;4.53;;;5.60;99.90;;;;;;4965572;28;20850;-87
2023/01/29 06:03:08;;;;;;;6.68;5.15;;;5.60;99.90;;;;;;4979294;28;20052;-86
2023/01/29 06:05:38;;;;;;;5.82;4.47;;;5.60;99.90;;;;;;4978195;28;20068;-86
2023/01/29 06:08:07;;;;;;;5.53;4.38;;;5.50;99.90;;;;;;4982054;28;20110;-85
2023/01/29 06:10:34;;;;;;;4.85;3.83;;;5.60;99.90;;;;;;4979577;28;20086;-86
2023/01/29 06:13:01;;;;;;;6.03;4.25;;;5.60;99.90;;;;;;4944291;28;20110;-86
2023/01/29 06:15:28;;;;;;;4.53;3.47;;;5.70;99.90;;;;;;4976722;28;20230;-87
2023/01/29 06:17:58;;;;;;;4.57;3.50;;;5.70;99.90;;;;;;4945011;28;20061;-86
2023/01/29 06:20:25;;;;;;;4.03;3.20;;;5.60;99.90;;;;;;4944923;28;20102;-86
2023/01/29 06:22:52;;;;;;;5.53;3.90;;;5.70;99.90;;;;;;4943356;29;20127;-87
2023/01/29 06:25:20;;;;;;;6.28;4.72;;;5.60;99.90;;;;;;4962891;28;20066;-86
2023/01/29 06:27:50;;;;;;;5.82;3.85;;;5.60;99.90;;;;;;4942622;28;20055;-86
2023/01/29 06:30:17;;;;;;;5.50;4.13;;;5.60;99.90;;;;;;4944732;28;20519;-86
2023/01/29 06:32:44;;;;;;;5.55;4.47;;;5.60;99.90;;;;;;4942869;28;20059;-86
2023/01/29 06:35:11;;;;;;;6.93;4.80;;;5.60;99.90;;;;;;4943414;29;20143;-86
2023/01/29 06:37:37;;;;;;;5.55;4.15;;;5.60;99.90;;;;;;4944275;29;20498;-86
2023/01/29 06:40:05;;;;;;;6.70;4.70;;;5.60;99.90;;;;;;4944524;29;20371;-86
2023/01/29 06:42:34;;;;;;;6.65;5.05;;;5.60;99.90;;;;;;4948289;28;20051;-86
2023/01/29 06:45:04;;;;;;;5.80;4.82;;;5.60;99.90;;;;;;4977051;28;20149;-86
2023/01/29 06:47:31;;;;;;;6.45;4.78;;;5.60;99.90;;;;;;4947646;29;20073;-86
2023/01/29 06:49:57;;;;;;;6.25;4.45;;;5.60;99.90;;;;;;4978771;28;20069;-86
2023/01/29 06:52:27;;;;;;;6.68;5.10;;;5.60;99.90;;;;;;4947659;28;20067;-87
2023/01/29 06:54:55;;;;;;;6.15;4.60;;;5.60;99.90;;;;;;4947603;28;20051;-86
2023/01/29 06:57:22;;;;;;;5.60;4.32;;;5.70;99.90;;;;;;4944781;29;20082;-86
2023/01/29 06:59:49;;;;;;;6.43;4.90;;;5.70;99.90;;;;;;4945064;29;20059;-86
2023/01/29 07:02:16;;;;;;;6.80;5.78;;;5.70;99.90;;;;;;4945814;29;20075;-85
2023/01/29 07:04:43;;;;;;;6.75;4.63;;;5.70;99.90;;;;;;4930399;29;20416;-85
2023/01/29 07:07:14;;;;;;;5.05;4.18;;;5.70;99.90;;;;;;4947118;29;20463;-86
2023/01/29 07:09:41;;;;;;;5.80;4.60;;;5.70;99.90;;;;;;4946770;28;20134;-86
2023/01/29 07:12:09;;;;;;;5.80;4.78;;;5.70;99.90;;;;;;4944984;28;20610;-86
2023/01/29 07:14:35;;;;;;;6.20;4.60;;;5.70;99.90;;;;;;4946357;28;20097;-86
2023/01/29 07:17:02;;;;;;;7.88;4.90;;;5.70;99.90;;;;;;4930749;29;20055;-86
2023/01/29 07:19:29;;;;;;;5.88;4.32;;;5.70;99.90;;;;;;4930415;29;20051;-86
2023/01/29 07:21:56;;;;;;;5.50;4.10;;;5.60;99.90;;;;;;4944582;28;20063;-86
2023/01/29 07:24:23;;;;;;;5.35;4.15;;;5.70;99.90;;;;;;4945923;29;20084;-86
2023/01/29 07:26:50;;;;;;;3.90;2.80;;;5.70;99.90;;;;;;4945248;28;20059;-86
2023/01/29 07:29:17;;;;;;;4.38;2.72;;;5.70;99.90;;;;;;4945843;29;20052;-86
2023/01/29 07:31:44;;;;;;;3.60;2.35;;;5.70;99.90;;;;;;4977266;28;20098;-85
2023/01/29 07:34:11;;;;;;;3.67;2.80;;;5.70;99.90;;;;;;4946835;28;20051;-86
2023/01/29 07:36:38;;;;;;;4.45;3.03;;;5.60;99.90;;;;;;4930559;29;20190;-86
2023/01/29 07:39:05;;;;;;;5.30;3.35;;;5.60;99.90;;;;;;4914065;29;20082;-87
2023/01/29 07:41:31;;;;;;;4.85;3.20;;;5.60;99.90;;;;;;4945983;29;20116;-88
2023/01/29 07:43:58;;;;;;;4.15;2.97;;;5.60;99.90;;;;;;4978249;28;20055;-88
2023/01/29 07:46:25;;;;;;;4.32;3.58;;;5.60;99.90;;;;;;4942765;28;20052;-88
2023/01/29 07:48:52;;;;;;;4.80;3.50;;;5.50;99.90;;;;;;4945700;29;20055;-88
2023/01/29 07:51:20;;;;;;;4.35;3.20;;;5.60;99.90;;;;;;4978212;28;20143;-88
2023/01/29 07:53:47;;;;;;;7.78;3.78;;;5.60;99.90;;;;;;4977480;28;20082;-88
2023/01/29 07:56:14;;;;;;;5.63;4.20;;;5.60;99.90;;;;;;4943579;28;20102;-85
2023/01/29 07:58:41;;;;;;;4.95;3.65;;;5.60;99.90;;;;;;4945287;28;20055;-86
2023/01/29 08:01:09;;;;;;;4.60;3.78;;;5.60;99.90;;;;;;4933390;28;20059;-82
2023/01/29 08:03:37;;;;;;;4.72;3.67;;;5.60;99.90;;;;;;4955868;28;20526;-83
2023/01/29 08:06:04;;;;;;;4.40;3.50;;;5.60;99.90;;;;;;4950193;28;20166;-83
2023/01/29 08:08:31;;;;;;;5.20;3.55;;;5.60;99.90;;;;;;4971408;28;20145;-84
2023/01/29 08:11:02;;;;;;;4.32;3.17;;;5.70;99.90;;;;;;4960387;28;20099;-84
2023/01/29 08:13:30;;;;;;;3.53;2.67;;;5.80;99.90;;;;;;4949906;28;20475;-84
2023/01/29 08:16:03;;;;;;;4.07;2.67;;;5.80;99.90;;;;;;4974567;28;20631;-83
2023/01/29 08:18:30;;;;;;;3.95;2.88;;;5.80;99.90;;;;;;4939438;29;20446;-85
2023/01/29 08:20:59;;;;;;;3.85;2.53;;;5.90;99.90;;;;;;4945161;28;20055;-85
2023/01/29 08:23:26;;;;;;;4.13;3.22;;;5.90;99.90;;;;;;4973853;28;20059;-85
2023/01/29 08:25:53;;;;;;;3.78;2.80;;;5.90;99.90;;;;;;4939664;29;20193;-85
2023/01/29 08:28:20;;;;;;;5.65;3.88;;;5.90;99.90;;;;;;4941100;28;20047;-85
2023/01/29 08:30:47;;;;;;;4.20;3.35;;;5.90;99.90;;;;;;4974235;28;20728;-85
2023/01/29 08:33:14;;;;;;;5.47;3.67;;;6.00;99.90;;;;;;4968247;28;20047;-83
2023/01/29 08:35:49;;;;;;;5.68;3.85;;;6.00;99.90;;;;;;4937565;28;20063;-84
2023/01/29 08:38:18;;;;;;;6.03;4.30;;;6.00;99.90;;;;;;4944488;28;20542;-84
2023/01/29 08:40:45;;;;;;;4.75;3.55;;;6.00;99.90;;;;;;4971588;28;20134;-84
2023/01/29 08:43:14;;;;;;;4.82;3.47;;;6.10;99.90;;;;;;4971690;28;20403;-85
2023/01/29 08:45:41;;;;;;;6.03;4.40;;;6.20;99.90;;;;;;4945029;28;20077;-84
2023/01/29 08:48:09;;;;;;;5.45;3.83;;;6.20;99.90;;;;;;4949858;28;20087;-84
2023/01/29 08:50:36;;;;;;;6.75;4.05;;;6.20;99.90;;;;;;4950146;28;20055;-84
2023/01/29 08:53:06;;;;;;;5.75;4.55;;;6.20;99.90;;;;;;4971621;28;20055;-83
2023/01/29 08:55:36;;;;;;;8.02;5.22;;;6.30;99.90;;;;;;4970446;28;20055;-83
2023/01/29 08:58:04;;;;;;;5.60;4.25;;;6.20;99.90;;;;;;4935429;28;20524;-82
2023/01/29 09:00:32;;;;;;;6.75;5.00;;;6.20;99.90;;;;;;4941827;28;20471;-86
2023/01/29 09:02:59;;;;;;;7.20;5.03;;;6.30;99.90;;;;;;4975985;28;20051;-83
2023/01/29 09:05:27;;;;;;;6.00;3.97;;;6.30;99.90;;;;;;4953677;28;20090;-85
2023/01/29 09:07:55;;;;;;;6.00;4.70;;;6.30;99.90;;;;;;4965519;28;20059;-82
2023/01/29 09:10:22;;;;;;;9.52;4.38;;;6.30;99.90;;;;;;4969806;28;20051;-83
2023/01/29 09:12:51;;;;;;;7.35;4.60;;;6.40;99.90;;;;;;4965090;28;20241;-85
2023/01/29 09:15:20;;;;;;;6.93;5.30;;;6.40;99.90;;;;;;4942771;28;20062;-85
2023/01/29 09:17:48;;;;;;;6.10;4.75;;;6.40;99.90;;;;;;4933280;28;20051;-84
2023/01/29 09:20:16;;;;;;;5.78;4.68;;;6.40;99.90;;;;;;4968275;28;20478;-84
2023/01/29 09:22:43;;;;;;;6.78;4.68;;;6.40;99.90;;;;;;4935020;29;20090;-84
2023/01/29 09:25:10;;;;;;;7.30;5.88;;;6.40;99.90;;;;;;4943631;28;20211;-84
2023/01/29 09:27:38;;;;;;;6.93;5.57;;;6.40;99.90;;;;;;4978937;28;20066;-84
2023/01/29 09:30:06;;;;;;;10.95;6.28;;;6.30;99.90;;;;;;4948120;28;20051;-84
2023/01/29 09:32:33;;;;;;;7.47;5.70;;;6.30;99.90;;;;;;4970712;28;20088;-84
2023/01/29 09:35:21;;;;;;;7.15;5.45;;;6.30;99.90;;;;;;4940984;29;20058;-83
2023/01/29 09:37:48;;;;;;;8.57;5.90;;;6.40;99.90;;;;;;4949812;28;20051;-83
2023/01/29 09:40:50;;;;;;;6.60;5.13;;;6.40;99.90;;;;;;4951767;28;20134;-85
2023/01/29 09:43:40;;;;;;;6.55;4.97;;;6.50;99.90;;;;;;4934545;29;20391;-83
2023/01/29 09:46:23;;;;;;;6.28;4.43;;;6.50;99.90;;;;;;4967825;28;20113;-86
2023/01/29 09:48:55;;;;;;;7.90;4.82;;;6.60;99.90;;;;;;4953279;28;20494;-85
2023/01/29 09:51:29;;;;;;;5.57;3.88;;;6.70;99.90;;;;;;4954943;28;20314;-85
2023/01/29 09:54:22;;;;;;;6.38;4.85;;;6.70;99.90;;;;;;4955936;28;20053;-85
2023/01/29 09:56:51;;;;;;;5.45;3.83;;;6.80;99.90;;;;;;4954042;28;20414;-84
2023/01/29 09:59:18;;;;;;;6.68;5.13;;;6.90;99.90;;;;;;4925799;29;20102;-87
2023/01/29 10:02:06;;;;;;;7.03;5.03;;;6.90;99.90;;;;;;4954616;28;20517;-84
2023/01/29 10:05:09;;;;;;;6.40;5.10;;;6.90;99.90;;;;;;4971982;28;20063;-88
2023/01/29 10:07:59;;;;;;;5.43;4.78;;;6.90;99.90;;;;;;4972794;28;20605;-88
2023/01/29 10:10:32;;;;;;;5.50;4.05;;;6.90;99.90;;;;;;4969445;28;20075;-81
2023/01/29 10:13:10;;;;;;;4.43;3.47;;;7.00;99.90;;;;;;4971152;28;20047;-86
2023/01/29 10:15:40;;;;;;;6.28;4.28;;;7.00;99.90;;;;;;4966350;28;20061;-89
2023/01/29 10:18:19;;;;;;;6.57;4.78;;;7.00;99.90;;;;;;4942586;28;20106;-87
2023/01/29 10:21:01;;;;;;;4.35;3.78;;;7.00;99.90;;;;;;4949442;28;20051;-88
2023/01/29 10:23:39;;;;;;;6.70;4.60;;;7.00;99.90;;;;;;4936864;28;20336;-87
2023/01/29 10:26:10;;;;;;;6.60;4.50;;;7.00;99.90;;;;;;4959687;28;20578;-87
2023/01/29 10:28:44;;;;;;;7.38;4.82;;;7.10;99.90;;;;;;4976170;28;20117;-87
2023/01/29 10:31:12;;;;;;;7.82;4.88;;;7.10;99.90;;;;;;4959842;28;20106;-86
2023/01/29 10:33:45;;;;;;;6.10;4.57;;;7.00;99.90;;;;;;4944703;29;20192;-86
2023/01/29 10:36:33;;;;;;;5.95;4.30;;;7.00;99.90;;;;;;4971132;28;20051;-87
2023/01/29 10:39:00;;;;;;;5.78;4.72;;;7.00;99.90;;;;;;4974165;28;20189;-88
2023/01/29 10:42:02;;;;;;;6.15;4.50;;;6.90;99.90;;;;;;4959289;28;20047;-87
2023/01/29 10:45:04;;;;;;;8.13;4.93;;;6.90;99.90;;;;;;4957950;28;20495;-88
2023/01/29 10:48:08;;;;;;;7.50;4.75;;;6.80;99.90;;;;;;4945307;29;20138;-88
2023/01/29 10:51:15;;;;;;;5.78;4.25;;;6.80;99.90;;;;;;4945424;29;20106;-88
2023/01/29 10:53:57;;;;;;;7.85;4.90;;;6.90;99.90;;;;;;4950907;28;20283;-87
2023/01/29 10:56:52;;;;;;;5.10;3.70;;;7.00;99.90;;;;;;4954104;28;20062;-87
2023/01/29 10:59:37;;;;;;;6.68;4.85;;;7.10;99.90;;;;;;4975068;28;20062;-88
2023/01/29 11:02:13;;;;;;;6.47;4.65;;;7.10;99.90;;;;;;4977010;28;20061;-88
2023/01/29 11:04:39;;;;;;;5.45;4.22;;;7.10;99.90;;;;;;4943352;28;20047;-87
2023/01/29 11:07:06;;;;;;;5.72;4.25;;;7.20;99.90;;;;;;4975543;28;20047;-86
2023/01/29 11:09:49;;;;;;;5.20;3.78;;;7.30;99.90;;;;;;4943836;28;20142;-90
2023/01/29 11:12:25;;;;;;;7.40;4.70;;;7.20;99.90;;;;;;4955942;28;20061;-89
2023/01/29 11:14:54;;;;;;;5.78;3.90;;;7.20;99.90;;;;;;4959710;28;20126;-91
2023/01/29 11:17:23;;;;;;;6.95;5.03;;;7.20;99.90;;;;;;4959576;28;20631;-91
2023/01/29 11:19:50;;;;;;;5.93;4.80;;;7.30;99.90;;;;;;4962375;28;20729;-91
2023/01/29 11:22:36;;;;;;;7.07;4.95;;;7.30;99.90;;;;;;4958523;28;20066;-91
2023/01/29 11:25:17;;;;;;;5.88;4.90;;;7.30;99.90;;;;;;4929406;29;20078;-91
2023/01/29 11:28:00;;;;;;;6.93;5.20;;;7.30;99.90;;;;;;4957715;28;20507;-91
2023/01/29 11:30:38;;;;;;;6.50;4.35;;;7.30;99.90;;;;;;4984336;28;20149;-91
2023/01/29 11:33:23;;;;;;;6.07;4.28;;;7.50;99.90;;;;;;4957286;28;20086;-92
2023/01/29 11:35:51;;;;;;;6.72;4.93;;;7.60;99.90;;;;;;4978360;28;20154;-90
2023/01/29 11:38:22;;;;;;;6.65;4.55;;;7.70;99.90;;;;;;4963743;28;20062;-91
2023/01/29 11:40:49;;;;;;;6.22;4.38;;;7.60;99.90;;;;;;4982000;28;20081;-91
2023/01/29 11:43:30;;;;;;;5.80;4.47;;;7.70;99.90;;;;;;4961572;28;20047;-95
2023/01/29 11:46:02;;;;;;;6.18;3.75;;;7.70;99.90;;;;;;4953514;28;20047;-93
2023/01/29 11:48:49;;;;;;;5.45;4.07;;;7.80;99.90;;;;;;4966968;28;20455;-94
2023/01/29 11:51:42;;;;;;;6.10;4.35;;;7.90;99.90;;;;;;4948782;29;20147;-92
2023/01/29 11:54:10;;;;;;;6.10;4.50;;;7.70;99.90;;;;;;4950915;29;20059;-93
2023/01/29 11:56:41;;;;;;;6.05;4.40;;;7.70;99.90;;;;;;4933449;29;20227;-95
2023/01/29 11:59:27;;;;;;;5.18;4.13;;;7.70;99.90;;;;;;4952720;29;20098;-93
2023/01/29 12:01:56;;;;;;;5.65;4.10;;;7.70;99.90;;;;;;4967109;29;20023;-94
2023/01/29 12:04:23;;;;;;;4.43;3.42;;;7.80;99.90;;;;;;4963382;28;20051;-94
2023/01/29 12:06:51;;;;;;;5.13;3.92;;;7.80;99.90;;;;;;4951238;28;20090;-93
2023/01/29 12:09:20;;;;;;;6.97;4.30;;;7.70;99.90;;;;;;4957507;28;20074;-93
2023/01/29 12:11:47;;;;;;;6.22;4.47;;;7.60;99.90;;;;;;4928730;29;20407;-92
2023/01/29 12:14:32;;;;;;;7.63;5.93;;;7.60;99.90;;;;;;4943860;29;20059;-93
2023/01/29 12:17:09;;;;;;;6.55;4.95;;;7.50;99.90;;;;;;4976262;28;20069;-94
2023/01/29 12:19:51;;;;;;;5.95;4.68;;;7.40;99.90;;;;;;4938309;29;20051;-92
2023/01/29 12:22:32;;;;;;;7.20;4.50;;;7.40;99.90;;;;;;4926611;29;20155;-91
2023/01/29 12:25:06;;;;;;;6.78;4.30;;;7.40;99.90;;;;;;4943725;29;20510;-93
2023/01/29 12:27:54;;;;;;;6.03;4.70;;;7.30;99.90;;;;;;4958425;28;20071;-92
2023/01/29 12:30:41;;;;;;;7.40;4.70;;;7.30;99.90;;;;;;4981818;28;20055;-93
2023/01/29 12:33:13;;;;;;;6.07;4.35;;;7.30;99.90;;;;;;4971148;28;20082;-93
2023/01/29 12:35:46;;;;;;;6.28;4.07;;;7.30;99.90;;;;;;4954769;28;20154;-92
2023/01/29 12:38:16;;;;;;;5.43;4.18;;;7.40;99.90;;;;;;4973028;28;20468;-92
2023/01/29 12:40:48;;;;;;;6.05;3.72;;;7.50;99.90;;;;;;4944075;28;20055;-92
2023/01/29 12:43:22;;;;;;;5.30;4.30;;;7.60;99.90;;;;;;4975422;28;20491;-93
2023/01/29 12:45:51;;;;;;;4.80;3.47;;;7.70;99.90;;;;;;4955482;28;20111;-92
2023/01/29 12:48:31;;;;;;;5.00;3.58;;;7.80;99.90;;;;;;4961550;28;20074;-94
2023/01/29 12:51:07;;;;;;;4.45;3.78;;;7.80;99.90;;;;;;4979874;28;20168;-94
2023/01/29 12:53:36;;;;;;;4.00;3.05;;;7.80;99.90;;;;;;4969199;28;20138;-94
2023/01/29 12:56:14;;;;;;;4.32;3.40;;;7.80;99.90;;;;;;4970405;28;20799;-93
2023/01/29 12:58:48;;;;;;;5.10;3.13;;;7.80;99.90;;;;;;4955936;28;20055;-95
2023/01/29 13:01:20;;;;;;;6.95;3.20;;;7.80;99.90;;;;;;4962248;28;20150;-92
2023/01/29 13:03:55;;;;;;;4.38;3.20;;;7.90;99.90;;;;;;4929597;29;20508;-91
2023/01/29 13:06:26;;;;;;;4.05;3.00;;;7.90;99.90;;;;;;4977632;28;20130;-91
2023/01/29 13:08:55;;;;;;;4.75;3.10;;;8.00;99.90;;;;;;4959629;28;20105;-92
2023/01/29 13:11:59;;;;;;;4.95;3.15;;;8.00;99.90;;;;;;4975964;28;20058;-91
2023/01/29 13:14:32;;;;;;;4.78;3.25;;;7.90;99.90;;;;;;4933239;28;20131;-79
2023/01/29 13:17:08;;;;;;;6.22;3.25;;;8.00;99.90;;;;;;4954133;28;20054;-89
2023/01/29 13:19:42;;;;;;;4.05;2.90;;;8.00;99.90;;;;;;4960562;28;20051;-93
2023/01/29 13:22:21;;;;;;;3.75;2.72;;;8.00;99.90;;;;;;4944904;28;20062;-91
2023/01/29 13:24:48;;;;;;;3.03;2.40;;;8.10;99.90;;;;;;4957768;28;20496;-94
2023/01/29 13:27:31;;;;;;;4.97;2.65;;;8.20;99.90;;;;;;4968170;28;20055;-92
2023/01/29 13:29:58;;;;;;;2.97;2.20;;;8.30;99.90;;;;;;4955570;28;20054;-92
2023/01/29 13:32:27;;;;;;;3.35;2.20;;;8.30;99.90;;;;;;4944168;28;20070;-92
2023/01/29 13:35:02;;;;;;;3.08;2.25;;;8.40;99.90;;;;;;4951905;28;20061;-91
2023/01/29 13:37:32;;;;;;;3.90;2.47;;;8.40;99.90;;;;;;4939879;28;20554;-93
2023/01/29 13:40:00;;;;;;;5.65;2.83;;;8.30;99.90;;;;;;4941989;28;20078;-93
2023/01/29 13:42:46;;;;;;;3.00;2.15;;;8.30;99.90;;;;;;4930724;29;20051;-92
2023/01/29 13:45:22;;;;;;;3.00;2.05;;;8.40;99.90;;;;;;4937243;28;20150;-93
2023/01/29 13:47:49;;;;;;;3.85;2.45;;;8.40;99.90;;;;;;4961239;28;20119;-91
2023/01/29 13:50:37;;;;;;;3.60;2.70;;;8.40;99.90;;;;;;4950484;28;20255;-89
2023/01/29 13:53:05;;;;;;;4.28;2.50;;;8.40;99.90;;;;;;4946010;28;20050;-91
2023/01/29 13:55:38;;;;;;;4.10;2.67;;;8.50;99.90;;;;;;4933957;29;20102;-93
2023/01/29 13:58:10;;;;;;;3.17;2.33;;;8.50;99.90;;;;;;4949369;29;20047;-91
2023/01/29 14:00:37;;;;;;;3.80;2.67;;;8.50;99.90;;;;;;4950877;29;20067;-93
2023/01/29 14:03:10;;;;;;;3.80;2.17;;;8.50;99.90;;;;;;4950628;29;20051;-91